KGON

Groton-New London Airport

Groton (New London), Connecticut, USA
METAR KGON 181456Z 34013G21KT 10SM CLR 07/M07 A3026 RMK AO2 PK WND 33026/1427 SLP248 T00721067 50014
Observed Flight Rules
Oct-18 @ 14:56 UTC (an hour ago) Visual Flight Rules
Wind Visibility Clouds
340° at 13 knots
 Gusting to 21 knots
10 miles
  • Clear skies
Temperatures Readings
Current 7°C / 45°F
Dewpoint -7°C / 19°F
Humidity 37%
Altimeter 30.26" Hg
Pressure 1024.8 hPa
Elevation 3
METAR KGON 181456Z 34013G21KT 10SM CLR 07/M07 A3026 RMK AO2 PK WND 33026/1427 SLP248 T00721067 50014
Observed Flight Rules
Oct-18 @ 14:56 UTC
(an hour ago)
VFR
Wind Visibility
340° at 13 knots
 Gusting to 21 knots
10 miles
Clouds
  • Clear skies
Temperature Dewpoint
7°C / 45°F -7°C / 19°F
Humidity Altimeter Pressure
37% 30.26" Hg 1024.8 hPa